Time;durP1;ratioP1;P1;durP2;ratioP2;P2;SDS_P1;SDS_P2;PMS_P1;PMS_P2;Temp;Humidity;BMP_temperature;BMP_pressure;BME280_temperature;BME280_humidity;BME280_pressure;Samples;Min_cycle;Max_cycle;Signal;HPM_P1;HPM_P2
2023/06/17 00:02:25;;;;;;;5.93;5.43;;;;;;;21.73;42.39;100100.66;10394511;28;20784;-50
2023/06/17 00:07:27;;;;;;;6.00;5.35;;;;;;;21.70;42.37;100099.19;10392188;28;20766;-50
2023/06/17 00:12:31;;;;;;;5.22;4.72;;;;;;;21.67;42.74;100086.88;10393595;28;20512;-50
2023/06/17 00:17:33;;;;;;;5.53;5.03;;;;;;;21.66;42.50;100090.63;10393770;28;20725;-51
2023/06/17 00:22:35;;;;;;;4.97;4.55;;;;;;;21.65;42.38;100090.84;10394596;28;20999;-50
2023/06/17 00:27:36;;;;;;;6.05;4.88;;;;;;;21.61;42.84;100081.44;10396986;28;20060;-49
2023/06/17 00:32:39;;;;;;;6.53;5.22;;;;;;;21.59;42.68;100078.94;10394232;28;20049;-50
2023/06/17 00:37:41;;;;;;;6.03;5.53;;;;;;;21.56;43.11;100079.31;10394235;28;20049;-50
2023/06/17 00:42:42;;;;;;;5.88;5.28;;;;;;;21.51;42.97;100076.38;10394551;28;20048;-50
2023/06/17 00:47:44;;;;;;;6.15;5.65;;;;;;;21.48;43.32;100074.88;10391364;28;20056;-50
2023/06/17 00:52:47;;;;;;;8.20;5.72;;;;;;;21.43;43.35;100080.03;10398293;28;20053;-50
2023/06/17 00:57:49;;;;;;;5.88;5.28;;;;;;;21.37;43.41;100078.13;10389739;28;20060;-50
2023/06/17 01:02:51;;;;;;;5.82;5.25;;;;;;;21.33;43.39;100079.56;10388462;28;20059;-50
2023/06/17 01:08:12;;;;;;;5.70;5.13;;;;;;;21.28;43.49;100074.75;10391330;28;20151;-50
2023/06/17 01:13:15;;;;;;;6.22;5.63;;;;;;;21.28;43.54;100076.63;10392561;28;20041;-50
2023/06/17 01:18:18;;;;;;;6.50;5.28;;;;;;;21.25;43.94;100071.59;10390930;28;20153;-50
2023/06/17 01:23:31;;;;;;;6.35;5.00;;;;;;;21.19;43.83;100071.34;10388518;28;20049;-50
2023/06/17 01:28:34;;;;;;;7.40;4.90;;;;;;;21.10;43.79;100061.72;10390272;28;20064;-50
2023/06/17 01:33:38;;;;;;;7.20;5.17;;;;;;;21.02;43.83;100067.28;10384252;28;20119;-51
2023/06/17 01:38:46;;;;;;;5.55;5.00;;;;;;;20.99;44.07;100062.25;10391254;28;20312;-51
2023/06/17 01:43:49;;;;;;;7.55;5.20;;;;;;;20.96;44.26;100058.06;10385484;28;20103;-51
2023/06/17 01:48:53;;;;;;;5.43;4.93;;;;;;;20.93;44.50;100054.94;10385178;28;20699;-50
2023/06/17 01:53:54;;;;;;;5.32;4.82;;;;;;;20.89;44.67;100045.53;10382180;28;20064;-50
2023/06/17 01:58:56;;;;;;;5.80;5.13;;;;;;;20.87;44.82;100058.41;10374425;28;20414;-50
2023/06/17 02:03:57;;;;;;;7.38;6.25;;;;;;;20.79;44.78;100067.50;10377056;28;20061;-50
2023/06/17 02:08:59;;;;;;;6.95;6.22;;;;;;;20.73;44.91;100062.88;10371241;28;20051;-50
2023/06/17 02:14:01;;;;;;;6.20;5.47;;;;;;;20.70;45.17;100061.38;10381702;28;20102;-50
2023/06/17 02:19:03;;;;;;;5.38;4.88;;;;;;;20.66;44.98;100068.22;10386785;28;20148;-50
2023/06/17 02:24:05;;;;;;;5.70;5.03;;;;;;;20.61;45.28;100070.63;10388609;28;20055;-48
2023/06/17 02:29:07;;;;;;;6.78;4.88;;;;;;;20.51;45.17;100054.75;10387049;28;20128;-50
2023/06/17 02:34:09;;;;;;;5.82;5.32;;;;;;;20.48;45.51;100055.97;10386289;28;20719;-48
2023/06/17 02:39:10;;;;;;;6.45;5.85;;;;;;;20.35;46.09;100055.00;10378064;28;20213;-48
2023/06/17 02:44:12;;;;;;;7.15;6.47;;;;;;;20.24;46.97;100061.75;10382018;28;20544;-48
2023/06/17 02:49:13;;;;;;;6.90;6.30;;;;;;;20.19;46.92;100056.06;10393944;28;20194;-48
2023/06/17 02:54:15;;;;;;;7.30;6.60;;;;;;;20.14;46.98;100046.66;10383700;28;20132;-48
2023/06/17 02:59:18;;;;;;;7.93;6.10;;;;;;;20.03;47.51;100057.16;10386800;28;20093;-51
2023/06/17 03:04:20;;;;;;;6.53;5.93;;;;;;;19.98;47.71;100055.00;10387077;28;20077;-49
2023/06/17 03:09:22;;;;;;;6.67;6.07;;;;;;;19.91;47.85;100054.09;10389629;28;20067;-49
2023/06/17 03:14:24;;;;;;;9.43;6.22;;;;;;;19.85;47.91;100054.88;10383188;28;20056;-49
2023/06/17 03:19:26;;;;;;;7.07;6.15;;;;;;;19.75;48.34;100061.34;10387638;28;20138;-49
2023/06/17 03:24:28;;;;;;;6.20;5.63;;;;;;;19.69;48.54;100067.50;10386450;28;20524;-49
2023/06/17 03:29:30;;;;;;;7.63;6.60;;;;;;;19.66;48.60;100067.88;10398928;28;20053;-49
2023/06/17 03:34:32;;;;;;;7.45;6.03;;;;;;;19.63;48.40;100062.03;10390551;28;20615;-49
2023/06/17 03:39:34;;;;;;;6.45;5.85;;;;;;;19.64;48.61;100063.72;10388395;28;20060;-49
2023/06/17 03:44:35;;;;;;;6.60;5.93;;;;;;;19.64;48.42;100064.53;10391563;28;20128;-50
2023/06/17 03:49:37;;;;;;;6.70;6.10;;;;;;;19.64;48.59;100069.94;10395222;28;20084;-49
2023/06/17 03:54:39;;;;;;;7.03;6.30;;;;;;;19.62;48.60;100061.16;10390432;28;20060;-49
2023/06/17 03:59:40;;;;;;;6.75;6.07;;;;;;;19.58;48.82;100060.72;10384144;28;20444;-50
2023/06/17 04:04:42;;;;;;;6.43;5.82;;;;;;;19.55;48.87;100061.09;10390219;28;20050;-49
2023/06/17 04:09:44;;;;;;;6.35;5.72;;;;;;;19.47;48.46;100052.25;10392574;28;20051;-49
2023/06/17 04:15:06;;;;;;;6.30;5.70;;;;;;;19.50;49.18;100047.34;10390698;28;20096;-49
2023/06/17 04:20:10;;;;;;;5.82;5.22;;;;;;;19.52;49.62;100056.06;10396809;28;20056;-49
2023/06/17 04:25:15;;;;;;;6.65;6.03;;;;;;;19.46;49.48;100048.72;10396808;28;20060;-50
2023/06/17 04:30:17;;;;;;;7.22;6.53;;;;;;;19.38;49.52;100055.06;10390918;28;21550;-49
2023/06/17 04:35:20;;;;;;;6.22;5.63;;;;;;;19.37;49.54;100053.38;10385857;28;20662;-49
2023/06/17 04:40:23;;;;;;;7.80;7.07;;;;;;;19.37;49.75;100057.94;10390860;28;20053;-49
2023/06/17 04:45:25;;;;;;;7.10;6.40;;;;;;;19.32;50.12;100060.34;10392790;28;20708;-49
2023/06/17 04:50:29;;;;;;;7.53;6.85;;;;;;;19.31;50.13;100054.13;10386763;28;20049;-50
2023/06/17 04:55:35;;;;;;;7.90;7.05;;;;;;;19.30;50.73;100057.84;10389935;28;20132;-49
2023/06/17 05:00:37;;;;;;;7.03;6.38;;;;;;;19.29;50.41;100049.91;10391161;28;20188;-50
2023/06/17 05:05:38;;;;;;;7.45;6.75;;;;;;;19.28;50.86;100056.38;10389178;28;20049;-50
2023/06/17 05:10:40;;;;;;;7.07;6.10;;;;;;;19.28;50.96;100059.06;10390841;28;20059;-51
2023/06/17 05:15:41;;;;;;;6.63;6.03;;;;;;;19.34;50.81;100063.72;10385759;28;20045;-50
2023/06/17 05:20:43;;;;;;;8.25;6.85;;;;;;;19.36;50.69;100067.88;10388106;28;20049;-50
2023/06/17 05:25:44;;;;;;;7.15;6.32;;;;;;;19.43;50.76;100070.69;10382882;28;20049;-50
2023/06/17 05:30:46;;;;;;;7.20;6.45;;;;;;;19.53;50.77;100067.69;10372425;28;20735;-56
2023/06/17 05:35:48;;;;;;;7.22;6.53;;;;;;;19.61;50.69;100064.91;10380274;28;20074;-56
2023/06/17 05:40:50;;;;;;;6.88;6.22;;;;;;;19.68;49.94;100070.38;10367314;28;20095;-56
2023/06/17 05:45:52;;;;;;;7.35;6.65;;;;;;;19.69;50.15;100070.19;10381401;28;20186;-55
2023/06/17 05:50:53;;;;;;;7.07;6.38;;;;;;;19.73;50.51;100076.91;10376271;28;20143;-56
2023/06/17 05:55:55;;;;;;;7.38;6.72;;;;;;;19.77;50.44;100083.66;10380927;28;20138;-56
2023/06/17 06:00:56;;;;;;;9.43;6.43;;;;;;;19.82;49.97;100080.38;10375237;28;20049;-56
2023/06/17 06:05:59;;;;;;;7.53;6.78;;;;;;;19.94;49.74;100083.44;10376220;28;20140;-56
2023/06/17 06:11:01;;;;;;;7.32;6.38;;;;;;;19.96;48.93;100084.06;10373872;28;20049;-56
2023/06/17 06:16:03;;;;;;;5.97;5.38;;;;;;;20.04;49.37;100092.09;10380021;28;20053;-56
2023/06/17 06:21:05;;;;;;;6.43;5.85;;;;;;;20.16;48.77;100091.59;10370507;28;20179;-56
2023/06/17 06:26:07;;;;;;;7.57;5.95;;;;;;;20.30;48.43;100096.13;10365960;28;20060;-57
2023/06/17 06:31:08;;;;;;;6.72;6.13;;;;;;;20.38;48.67;100092.47;10381940;28;20630;-58
2023/06/17 06:36:10;;;;;;;6.35;5.85;;;;;;;20.57;48.20;100091.00;10370738;28;20060;-56
2023/06/17 06:41:11;;;;;;;6.90;5.50;;;;;;;20.70;47.79;100093.84;10372180;28;20084;-56
2023/06/17 06:46:13;;;;;;;6.40;5.80;;;;;;;20.86;47.40;100095.44;10373986;28;20570;-56
2023/06/17 06:51:16;;;;;;;;;;;;;;;21.03;47.19;100093.28;10380356;28;20049;-57
2023/06/17 06:56:18;;;;;;;7.75;4.68;;;;;;;21.14;46.65;100106.28;10379294;28;19932;-56
2023/06/17 07:01:20;;;;;;;6.43;5.82;;;;;;;21.33;46.59;100093.09;10378447;28;20048;-57
2023/06/17 07:06:22;;;;;;;7.43;6.70;;;;;;;21.46;45.90;100101.31;10371483;28;20674;-56
2023/06/17 07:11:24;;;;;;;7.03;6.03;;;;;;;21.57;46.34;100104.53;10377524;28;20589;-56
2023/06/17 07:16:26;;;;;;;5.88;5.28;;;;;;;21.82;45.76;100104.88;10368523;28;20671;-56
2023/06/17 07:21:28;;;;;;;7.00;6.38;;;;;;;22.01;44.99;100101.41;10395059;28;20546;-56
2023/06/17 07:26:30;;;;;;;7.32;6.15;;;;;;;22.08;44.77;100109.56;10380972;28;20147;-56
2023/06/17 07:31:32;;;;;;;6.00;5.40;;;;;;;22.16;44.50;100109.41;10379374;28;20152;-56
2023/06/17 07:36:33;;;;;;;6.38;5.78;;;;;;;22.41;44.47;100106.16;10375205;28;20057;-56
2023/06/17 07:41:35;;;;;;;6.43;5.82;;;;;;;22.58;43.64;100104.75;10379289;28;20548;-57
2023/06/17 07:46:36;;;;;;;5.97;5.43;;;;;;;22.69;43.57;100105.19;10379741;28;20054;-57
2023/06/17 07:51:38;;;;;;;6.20;5.55;;;;;;;22.88;43.55;100101.66;10379545;28;20123;-56
2023/06/17 07:56:40;;;;;;;7.43;5.85;;;;;;;23.08;43.21;100098.09;10379219;28;20064;-57
2023/06/17 08:01:43;;;;;;;6.07;5.35;;;;;;;23.26;42.83;100090.16;10380420;28;20130;-56
2023/06/17 08:06:45;;;;;;;8.57;5.85;;;;;;;23.54;42.34;100097.22;10380551;28;20320;-56
2023/06/17 08:11:47;;;;;;;6.72;5.88;;;;;;;23.79;41.62;100088.38;10389146;28;20056;-56
2023/06/17 08:16:49;;;;;;;6.18;5.53;;;;;;;23.93;40.98;100084.59;10389076;28;20075;-57
2023/06/17 08:21:51;;;;;;;6.43;5.72;;;;;;;23.97;40.84;100079.53;10387410;28;20049;-57
2023/06/17 08:26:53;;;;;;;7.38;6.55;;;;;;;24.25;40.04;100075.66;10389109;28;21036;-57
2023/06/17 08:31:55;;;;;;;6.95;5.45;;;;;;;24.39;39.72;100073.69;10386715;28;20132;-56
2023/06/17 08:36:56;;;;;;;7.82;6.20;;;;;;;24.65;39.15;100065.38;10388469;28;20060;-56
2023/06/17 08:41:58;;;;;;;7.55;5.60;;;;;;;24.80;37.13;100066.91;10388140;28;21439;-56
2023/06/17 08:47:03;;;;;;;5.22;4.78;;;;;;;24.84;37.94;100060.81;10391700;28;20069;-56
2023/06/17 08:52:07;;;;;;;5.40;4.90;;;;;;;25.14;37.64;100057.41;10385259;28;20057;-56
2023/06/17 08:57:12;;;;;;;5.55;4.95;;;;;;;25.29;37.27;100054.31;10397760;28;20209;-56
2023/06/17 09:02:15;;;;;;;5.45;4.60;;;;;;;25.36;36.38;100055.13;10393606;28;20057;-56
2023/06/17 09:07:17;;;;;;;5.88;4.65;;;;;;;25.51;35.20;100054.75;10391807;28;20093;-56
2023/06/17 09:12:22;;;;;;;5.28;4.53;;;;;;;25.64;35.02;100044.75;10388679;28;20057;-56
2023/06/17 09:17:31;;;;;;;4.95;4.18;;;;;;;25.87;35.33;100039.44;10393343;28;20052;-56
2023/06/17 09:22:33;;;;;;;4.55;4.15;;;;;;;26.13;34.14;100042.06;10385887;28;20049;-57
2023/06/17 09:27:34;;;;;;;5.53;4.90;;;;;;;26.33;33.74;100042.59;10393019;28;20625;-57
2023/06/17 09:32:42;;;;;;;4.80;3.83;;;;;;;26.42;32.44;100022.09;10387546;28;20655;-56
2023/06/17 09:37:49;;;;;;;5.07;4.30;;;;;;;26.35;32.49;100029.56;10388268;28;20048;-57
2023/06/17 09:43:04;;;;;;;4.63;4.22;;;;;;;26.48;32.28;100016.75;10387790;28;20190;-57
2023/06/17 09:48:37;;;;;;;5.18;3.83;;;;;;;26.76;31.58;100011.50;10379932;28;20061;-56
2023/06/17 09:53:41;;;;;;;5.15;3.90;;;;;;;27.10;32.60;100002.72;10404088;28;20060;-57
2023/06/17 09:58:44;;;;;;;4.95;4.20;;;;;;;27.12;32.66;100001.38;10386709;28;20230;-56
2023/06/17 10:03:46;;;;;;;5.15;4.65;;;;;;;26.91;32.42;99988.34;10390931;28;20123;-56
2023/06/17 10:08:50;;;;;;;5.10;4.60;;;;;;;26.79;32.96;100002.00;10390271;28;20044;-56
2023/06/17 10:14:13;;;;;;;5.03;4.55;;;;;;;27.07;31.70;99987.63;10377759;28;20516;-56
2023/06/17 10:19:20;;;;;;;7.53;6.25;;;;;;;27.26;31.53;99995.66;10389531;28;20050;-56
2023/06/17 10:24:25;;;;;;;7.45;6.18;;;;;;;27.06;31.69;99974.22;10394411;28;20060;-56
2023/06/17 10:29:27;;;;;;;5.35;4.75;;;;;;;27.40;31.92;99975.25;10384423;28;20717;-56
2023/06/17 10:34:28;;;;;;;4.85;4.45;;;;;;;27.72;31.64;99974.78;10389675;28;20060;-56
2023/06/17 10:39:30;;;;;;;7.28;4.38;;;;;;;27.55;31.63;99973.88;10387519;28;20128;-56
2023/06/17 10:44:35;;;;;;;4.85;4.43;;;;;;;27.66;31.46;99975.75;10385159;28;20056;-56
2023/06/17 10:49:41;;;;;;;4.72;4.13;;;;;;;27.97;30.83;99984.56;10390234;28;20152;-56
2023/06/17 10:54:55;;;;;;;5.20;4.57;;;;;;;28.35;30.75;99975.66;10389137;28;20614;-56
2023/06/17 11:00:08;;;;;;;8.32;5.40;;;;;;;28.25;30.13;99980.97;10387743;28;20064;-56
2023/06/17 11:05:18;;;;;;;5.10;4.18;;;;;;;28.03;29.71;99980.88;10384479;28;20052;-56
2023/06/17 11:10:24;;;;;;;4.35;3.78;;;;;;;28.03;29.24;99983.59;10389543;28;20053;-56
2023/06/17 11:15:28;;;;;;;4.07;3.75;;;;;;;28.30;28.13;99972.00;10389663;28;20055;-56
2023/06/17 11:20:33;;;;;;;3.70;3.30;;;;;;;28.66;28.09;99958.94;10390172;28;20063;-57
2023/06/17 11:25:35;;;;;;;4.97;3.40;;;;;;;28.97;26.48;99953.91;10387030;28;20721;-56
2023/06/17 11:30:46;;;;;;;3.90;3.53;;;;;;;28.69;26.25;99962.00;10381491;28;20110;-56
2023/06/17 11:35:48;;;;;;;3.35;3.05;;;;;;;28.14;26.34;99957.25;10389296;28;20132;-56
2023/06/17 11:40:55;;;;;;;3.95;3.55;;;;;;;28.35;27.38;99942.84;10385223;28;20192;-56
2023/06/17 11:45:57;;;;;;;4.13;3.10;;;;;;;28.80;26.69;99941.09;10385760;28;20064;-56
2023/06/17 11:50:59;;;;;;;;;;;;;;;28.80;26.00;99932.88;10387041;28;20053;-56
2023/06/17 11:56:07;;;;;;;4.10;3.35;;;;;;;28.81;25.68;99931.78;10396230;28;19973;-57
2023/06/17 12:01:09;;;;;;;4.72;3.22;;;;;;;29.14;24.91;99924.56;10390074;28;20227;-58
2023/06/17 12:06:21;;;;;;;4.68;3.05;;;;;;;29.35;24.05;99927.56;10399669;28;20243;-62
2023/06/17 12:11:26;;;;;;;3.70;3.40;;;;;;;29.52;23.74;99931.06;10387756;28;20151;-57
2023/06/17 12:16:33;;;;;;;3.72;3.42;;;;;;;29.40;24.25;99924.91;10391099;28;20221;-57
2023/06/17 12:21:36;;;;;;;5.65;3.55;;;;;;;29.61;24.83;99921.28;10395671;28;20505;-57
2023/06/17 12:26:37;;;;;;;4.13;3.53;;;;;;;29.53;24.26;99910.78;10391737;28;20053;-64
2023/06/17 12:31:39;;;;;;;3.40;3.10;;;;;;;29.58;23.50;99908.09;10388681;28;20191;-57
2023/06/17 12:36:41;;;;;;;5.40;3.93;;;;;;;29.68;24.55;99898.31;10382888;28;20455;-57
2023/06/17 12:41:43;;;;;;;3.85;3.42;;;;;;;29.77;24.61;99896.75;10392891;28;20057;-57
2023/06/17 12:46:45;;;;;;;4.35;3.13;;;;;;;29.59;23.18;99892.47;10390642;28;20585;-57
2023/06/17 12:51:46;;;;;;;;;;;;;;;29.33;23.83;99889.44;10394877;28;20049;-57
2023/06/17 12:56:48;;;;;;;4.72;3.10;;;;;;;29.43;24.23;99886.00;10395091;28;20425;-57
2023/06/17 13:01:49;;;;;;;4.33;3.93;;;;;;;29.54;24.47;99876.78;10391831;28;20067;-57
2023/06/17 13:06:52;;;;;;;3.63;3.33;;;;;;;29.67;24.21;99872.00;10391688;28;20199;-57
2023/06/17 13:11:54;;;;;;;3.85;3.40;;;;;;;29.69;23.78;99867.06;10386862;28;20776;-58
2023/06/17 13:16:56;;;;;;;4.40;3.63;;;;;;;29.66;24.48;99878.56;10398220;28;20414;-57
2023/06/17 13:21:58;;;;;;;4.53;3.78;;;;;;;29.58;24.69;99872.44;10394158;28;20053;-57
2023/06/17 13:27:01;;;;;;;3.88;3.47;;;;;;;29.57;24.00;99864.47;10392437;28;20059;-57
2023/06/17 13:32:04;;;;;;;4.53;3.55;;;;;;;29.39;24.39;99863.75;10396617;28;20051;-58
2023/06/17 13:37:05;;;;;;;4.00;3.60;;;;;;;29.43;25.41;99864.91;10392327;28;20650;-55
2023/06/17 13:42:07;;;;;;;5.97;4.53;;;;;;;29.53;25.12;99855.13;10384309;28;20901;-58
2023/06/17 13:47:09;;;;;;;3.03;2.73;;;;;;;29.46;25.21;99858.06;10387532;28;20069;-58
2023/06/17 13:52:10;;;;;;;5.68;4.47;;;;;;;29.15;24.77;99857.69;10394585;28;20291;-56
2023/06/17 13:57:13;;;;;;;4.32;3.92;;;;;;;28.91;25.16;99851.66;10388954;28;20053;-58
2023/06/17 14:02:16;;;;;;;4.05;3.45;;;;;;;29.11;25.18;99842.88;10396734;28;20041;-58
2023/06/17 14:07:18;;;;;;;4.93;3.70;;;;;;;29.22;24.14;99839.19;10388308;28;20197;-58
2023/06/17 14:12:20;;;;;;;3.87;3.43;;;;;;;29.15;24.34;99840.44;10388769;28;20103;-58
2023/06/17 14:17:23;;;;;;;3.80;3.50;;;;;;;29.19;24.36;99841.59;10385451;28;20390;-56
2023/06/17 14:22:25;;;;;;;4.97;3.63;;;;;;;29.20;24.34;99833.09;10393526;28;20381;-58
2023/06/17 14:27:36;;;;;;;4.20;3.80;;;;;;;29.16;23.85;99831.13;10386088;28;20049;-57
2023/06/17 14:32:45;;;;;;;3.20;3.00;;;;;;;29.02;24.43;99826.06;10396205;28;20048;-56
2023/06/17 14:37:48;;;;;;;4.13;3.83;;;;;;;28.93;24.18;99819.38;10390219;28;20501;-56
2023/06/17 14:42:49;;;;;;;3.42;3.13;;;;;;;28.85;23.91;99814.34;10385801;28;20056;-57
2023/06/17 14:47:51;;;;;;;4.72;3.45;;;;;;;28.77;24.33;99807.41;10387540;28;20174;-56
2023/06/17 14:52:52;;;;;;;3.63;3.00;;;;;;;28.74;24.71;99786.81;10384262;28;20057;-56
2023/06/17 14:57:54;;;;;;;3.83;3.53;;;;;;;28.82;22.75;99801.97;10383210;28;20296;-57
2023/06/17 15:02:59;;;;;;;4.75;4.35;;;;;;;28.85;23.78;99811.59;10389495;28;20057;-56
2023/06/17 15:08:03;;;;;;;3.53;3.15;;;;;;;28.78;22.70;99803.59;10388524;28;20709;-56
2023/06/17 15:13:05;;;;;;;3.53;3.25;;;;;;;28.70;23.63;99798.53;10381943;28;20152;-55
2023/06/17 15:18:06;;;;;;;4.43;3.23;;;;;;;28.74;23.76;99807.91;10392109;28;20088;-56
2023/06/17 15:23:08;;;;;;;4.63;3.80;;;;;;;28.64;21.47;99796.81;10384195;28;20045;-57
2023/06/17 15:28:10;;;;;;;3.30;3.00;;;;;;;28.55;22.57;99793.66;10399992;28;20913;-56
2023/06/17 15:33:11;;;;;;;3.60;3.30;;;;;;;28.59;23.04;99791.25;10386670;28;20656;-57
2023/06/17 15:38:13;;;;;;;6.43;4.00;;;;;;;28.59;23.36;99788.53;10389437;28;20107;-57
2023/06/17 15:43:14;;;;;;;4.00;3.40;;;;;;;28.59;23.43;99791.25;10391310;28;20061;-56
2023/06/17 15:48:16;;;;;;;3.92;3.60;;;;;;;28.63;23.13;99778.72;10383055;28;20041;-56
2023/06/17 15:53:17;;;;;;;5.80;4.60;;;;;;;28.61;22.73;99786.38;10393996;28;20052;-57
2023/06/17 15:58:19;;;;;;;5.47;3.60;;;;;;;28.51;22.60;99789.78;10385899;28;20052;-57
2023/06/17 16:03:31;;;;;;;3.77;3.37;;;;;;;28.46;22.96;99800.66;10388166;28;20114;-56
2023/06/17 16:08:32;;;;;;;4.20;3.80;;;;;;;28.41;22.50;99803.34;10390003;28;20508;-57
2023/06/17 16:13:36;;;;;;;3.70;3.40;;;;;;;28.34;22.88;99793.38;10383723;28;20331;-57
2023/06/17 16:18:38;;;;;;;3.92;3.55;;;;;;;28.27;22.91;99797.38;10390134;28;20053;-57
2023/06/17 16:23:39;;;;;;;4.20;3.63;;;;;;;28.32;23.60;99795.56;10390074;28;20053;-56
2023/06/17 16:28:41;;;;;;;4.20;3.80;;;;;;;28.29;23.16;99774.16;10388575;28;20057;-57
2023/06/17 16:33:43;;;;;;;5.00;3.63;;;;;;;28.28;22.81;99788.09;10387806;28;20449;-56
2023/06/17 16:38:44;;;;;;;4.00;3.60;;;;;;;28.24;23.66;99785.06;10392652;28;20049;-57
2023/06/17 16:43:45;;;;;;;3.42;3.13;;;;;;;28.29;23.52;99784.28;10390882;28;20049;-57
2023/06/17 16:48:48;;;;;;;3.22;2.67;;;;;;;28.28;23.72;99780.72;10396461;28;20059;-56
2023/06/17 16:53:50;;;;;;;4.25;3.08;;;;;;;28.24;23.34;99787.78;10391793;28;20071;-56
2023/06/17 16:58:51;;;;;;;4.13;3.33;;;;;;;28.21;23.12;99793.78;10396884;28;20060;-57
2023/06/17 17:03:53;;;;;;;3.45;3.15;;;;;;;28.18;23.55;99788.81;10399968;28;20195;-57
2023/06/17 17:08:54;;;;;;;3.50;3.00;;;;;;;28.18;23.72;99794.28;10393017;28;20728;-60
2023/06/17 17:13:56;;;;;;;5.83;3.50;;;;;;;28.07;23.00;99796.00;10385486;28;20442;-57
2023/06/17 17:18:57;;;;;;;3.40;2.97;;;;;;;28.02;22.84;99793.19;10388763;28;20046;-52
2023/06/17 17:23:59;;;;;;;4.63;3.40;;;;;;;28.01;23.79;99794.28;10374859;28;20049;-52
2023/06/17 17:29:03;;;;;;;3.83;3.53;;;;;;;27.96;23.61;99794.19;10379602;28;20057;-54
2023/06/17 17:34:04;;;;;;;4.13;2.95;;;;;;;27.96;23.67;99792.28;10372006;28;20474;-53
2023/06/17 17:39:06;;;;;;;4.38;2.97;;;;;;;27.92;23.31;99796.56;10386772;28;20806;-53
2023/06/17 17:44:08;;;;;;;4.05;2.75;;;;;;;27.86;23.32;99803.03;10375334;28;20064;-52
2023/06/17 17:49:09;;;;;;;4.18;3.13;;;;;;;27.80;23.26;99815.81;10378433;28;20501;-53
2023/06/17 17:54:11;;;;;;;3.93;3.50;;;;;;;27.76;23.33;99822.00;10377489;28;20053;-53
2023/06/17 17:59:12;;;;;;;4.63;2.83;;;;;;;27.71;24.03;99816.47;10381144;28;20168;-53
2023/06/17 18:04:14;;;;;;;4.00;3.53;;;;;;;27.64;24.07;99817.44;10378082;28;20057;-53
2023/06/17 18:09:15;;;;;;;3.50;3.20;;;;;;;27.51;24.05;99818.59;10380564;28;20053;-53
2023/06/17 18:14:17;;;;;;;4.40;3.30;;;;;;;27.47;24.36;99816.59;10377615;28;20069;-53
2023/06/17 18:19:19;;;;;;;6.80;3.83;;;;;;;27.42;24.48;99811.03;10380284;28;20114;-52
2023/06/17 18:24:20;;;;;;;4.50;3.42;;;;;;;27.37;24.88;99817.25;10375893;28;20734;-52
2023/06/17 18:29:23;;;;;;;4.07;3.40;;;;;;;27.32;24.73;99815.25;10376661;28;20087;-53
2023/06/17 18:34:25;;;;;;;5.25;3.20;;;;;;;27.26;25.39;99808.00;10375130;28;20095;-52
2023/06/17 18:39:26;;;;;;;4.25;3.13;;;;;;;27.21;24.87;99818.00;10378593;28;20940;-53
2023/06/17 18:44:27;;;;;;;3.60;3.30;;;;;;;27.13;24.66;99811.84;10377072;28;20060;-52
2023/06/17 18:49:30;;;;;;;4.03;3.73;;;;;;;27.10;25.13;99809.59;10373467;28;20520;-52
2023/06/17 18:54:32;;;;;;;6.47;3.80;;;;;;;26.93;24.90;99814.16;10382666;28;20220;-52
2023/06/17 18:59:33;;;;;;;5.10;3.55;;;;;;;26.90;26.15;99822.84;10376106;28;20832;-52
2023/06/17 19:04:35;;;;;;;5.32;4.28;;;;;;;26.88;26.72;99822.28;10383773;28;20512;-52
2023/06/17 19:09:36;;;;;;;5.97;4.15;;;;;;;26.78;26.47;99826.47;10377078;28;20138;-53
2023/06/17 19:14:38;;;;;;;5.07;4.57;;;;;;;26.71;26.32;99828.47;10379861;28;20397;-52
2023/06/17 19:19:39;;;;;;;4.65;4.25;;;;;;;26.64;26.64;99833.22;10379589;28;20108;-52
2023/06/17 19:24:41;;;;;;;5.70;4.65;;;;;;;26.61;27.88;99841.88;10376469;28;20524;-52
2023/06/17 19:29:42;;;;;;;5.18;4.35;;;;;;;26.55;28.04;99842.84;10373841;28;20209;-52
2023/06/17 19:34:44;;;;;;;5.10;3.88;;;;;;;26.49;27.83;99841.06;10376249;28;21506;-52
2023/06/17 19:39:48;;;;;;;5.50;4.28;;;;;;;26.41;28.50;99843.06;10369431;28;20080;-52
2023/06/17 19:44:56;;;;;;;6.30;4.40;;;;;;;26.31;27.87;99842.84;10377649;28;20075;-52
2023/06/17 19:49:59;;;;;;;4.70;4.30;;;;;;;26.25;27.69;99850.06;10370730;28;20045;-52
2023/06/17 19:55:00;;;;;;;;;;;;;;;26.19;28.26;99853.75;10377970;28;20514;-52
2023/06/17 20:00:02;;;;;;;5.22;4.63;;;;;;;26.13;28.18;99856.59;10373083;28;20043;-52
2023/06/17 20:05:06;;;;;;;4.87;4.47;;;;;;;26.03;27.82;99862.63;10374108;28;20103;-52
2023/06/17 20:10:08;;;;;;;4.65;4.25;;;;;;;25.85;27.13;99866.22;10375290;28;20825;-52
2023/06/17 20:15:10;;;;;;;6.15;4.53;;;;;;;25.74;27.75;99857.78;10373954;28;20049;-52
2023/06/17 20:20:11;;;;;;;5.55;5.05;;;;;;;25.72;28.48;99862.66;10381439;28;20110;-53
2023/06/17 20:25:20;;;;;;;6.00;4.40;;;;;;;25.71;27.54;99863.72;10380634;28;20076;-52
2023/06/17 20:30:21;;;;;;;6.38;5.07;;;;;;;25.52;28.55;99870.28;10381600;28;20422;-53
2023/06/17 20:35:23;;;;;;;5.83;5.13;;;;;;;25.45;28.63;99866.84;10380803;28;20048;-52
2023/06/17 20:40:25;;;;;;;8.38;7.57;;;;;;;25.31;29.22;99867.03;10375516;28;20056;-52
2023/06/17 20:45:27;;;;;;;19.40;17.50;;;;;;;25.32;29.07;99868.66;10367070;28;20056;-52
2023/06/17 20:50:28;;;;;;;19.40;17.67;;;;;;;25.12;29.68;99870.81;10393344;28;20134;-52
2023/06/17 20:55:30;;;;;;;18.65;16.95;;;;;;;25.16;30.25;99869.28;10382674;28;20534;-53
2023/06/17 21:00:32;;;;;;;17.63;15.95;;;;;;;25.13;30.09;99858.84;10375803;28;20053;-52
2023/06/17 21:05:33;;;;;;;19.85;17.95;;;;;;;25.09;30.57;99857.66;10380790;28;20071;-52
2023/06/17 21:10:35;;;;;;;14.25;12.90;;;;;;;25.03;30.27;99860.22;10389176;28;20063;-52
2023/06/17 21:15:36;;;;;;;10.48;9.45;;;;;;;24.98;30.59;99856.50;10379784;28;20580;-53
2023/06/17 21:20:37;;;;;;;8.27;7.35;;;;;;;24.92;30.56;99858.28;10372417;28;20068;-53
2023/06/17 21:25:39;;;;;;;10.05;8.48;;;;;;;24.80;31.37;99865.50;10389947;28;20135;-53
2023/06/17 21:30:40;;;;;;;10.75;9.65;;;;;;;24.76;30.95;99859.69;10377928;28;20553;-53
2023/06/17 21:35:42;;;;;;;11.80;10.57;;;;;;;24.68;31.25;99859.97;10375174;28;20552;-53
2023/06/17 21:40:43;;;;;;;8.50;7.53;;;;;;;24.63;31.19;99863.38;10377152;28;20053;-52
2023/06/17 21:45:45;;;;;;;6.95;6.32;;;;;;;24.56;30.82;99876.22;10374646;28;20142;-52
2023/06/17 21:50:46;;;;;;;5.78;4.90;;;;;;;24.51;31.28;99870.59;10379812;28;20186;-53
2023/06/17 21:55:48;;;;;;;5.50;5.00;;;;;;;24.47;31.09;99872.09;10382105;28;20146;-53
2023/06/17 22:00:50;;;;;;;7.13;5.60;;;;;;;24.31;31.38;99874.34;10379891;28;20581;-53
2023/06/17 22:05:52;;;;;;;5.75;5.25;;;;;;;24.27;31.94;99866.84;10373725;28;20057;-53
2023/06/17 22:10:55;;;;;;;6.88;6.18;;;;;;;24.25;31.66;99869.81;10349478;28;20728;-52
2023/06/17 22:15:57;;;;;;;7.03;6.28;;;;;;;24.18;31.93;99874.47;10378057;28;20915;-54
2023/06/17 22:20:59;;;;;;;6.90;6.18;;;;;;;24.10;32.31;99867.41;10377138;28;20127;-54
2023/06/17 22:26:00;;;;;;;6.85;6.05;;;;;;;24.02;32.28;99858.69;10393353;28;20349;-53
2023/06/17 22:31:02;;;;;;;5.65;5.10;;;;;;;24.00;31.82;99873.38;10376864;28;20077;-53
2023/06/17 22:36:04;;;;;;;5.28;4.78;;;;;;;23.97;32.52;99878.41;10385220;28;20045;-54
2023/06/17 22:41:05;;;;;;;6.15;5.65;;;;;;;23.95;31.45;99872.34;10382026;28;20069;-54
2023/06/17 22:46:08;;;;;;;7.43;5.22;;;;;;;23.88;31.95;99874.28;10385712;28;20045;-54
2023/06/17 22:51:10;;;;;;;6.32;5.60;;;;;;;23.85;31.87;99880.97;10380561;28;20056;-54
2023/06/17 22:56:11;;;;;;;7.30;5.65;;;;;;;23.78;32.60;99874.72;10383031;28;20175;-54
2023/06/17 23:01:13;;;;;;;6.07;5.47;;;;;;;23.68;31.83;99866.25;10387832;28;20049;-54
2023/06/17 23:06:14;;;;;;;6.47;5.88;;;;;;;23.74;32.78;99878.97;10390622;28;20045;-53
2023/06/17 23:11:17;;;;;;;6.25;5.75;;;;;;;23.69;32.43;99881.47;10390429;28;20175;-54
2023/06/17 23:16:18;;;;;;;8.23;6.13;;;;;;;23.64;33.06;99872.13;10385977;28;20055;-55
2023/06/17 23:21:22;;;;;;;6.75;4.75;;;;;;;23.56;32.61;99877.81;10380361;28;20052;-54